Date,TemperatureHighF,TemperatureAvgF,TemperatureLowF,DewpointHighF,DewpointAvgF,DewpointLowF,HumidityHigh,HumidityAvg,HumidityLow,PressureMaxIn,PressureMinIn,WindSpeedMaxMPH,WindSpeedAvgMPH,GustSpeedMaxMPH,PrecipitationSumIn
2013-1-1,48.9,46.4,43.2,46.7,38.8,28.1,92,76,49,30.19,30.04,5,1,7,0.31
2013-1-2,50.0,46.0,42.1,46.6,41.5,35.8,95,85,63,30.21,30.02,3,1,7,0.19
2013-1-8,57.2,47.5,40.8,40.7,37.8,34.8,84,70,53,30.50,30.46,2,0,3,0.00
2013-1-9,68.9,51.6,34.9,52.6,43.6,31.2,91,75,53,30.55,30.47,6,1,6,0.00
2013-1-10,66.4,53.1,43.9,50.0,40.5,33.7,93,66,35,30.62,30.50,5,1,6,0.00
2013-1-11,49.8,44.6,41.7,44.5,42.0,39.9,94,91,72,30.50,30.27,7,1,9,0.07
2013-1-12,68.8,55.8,45.1,62.7,53.2,43.5,95,92,78,30.28,30.21,3,1,5,0.01
2013-1-13,77.2,65.4,55.4,62.7,58.8,54.0,95,80,61,30.24,30.16,9,3,11,0.00
2013-1-14,64.0,62.0,58.1,62.1,59.6,56.7,96,92,83,30.25,30.18,6,2,7,0.29
2013-1-15,57.2,43.6,40.1,55.8,42.2,38.8,96,95,91,30.32,30.17,6,2,10,0.17
2013-1-16,50.5,44.1,39.2,48.9,43.0,38.2,96,96,94,30.16,30.07,5,1,6,0.36
2013-1-17,49.6,43.0,32.5,48.5,41.7,31.3,96,95,93,30.26,29.98,7,2,12,1.88
2013-1-18,51.4,35.2,27.1,45.3,30.1,23.2,95,83,60,30.65,30.26,3,0,5,0.08
2013-1-19,49.4,37.0,24.5,36.5,28.9,21.4,91,74,51,30.63,30.30,3,1,7,0.12
2013-1-20,59.0,46.3,34.7,40.0,31.8,27.4,76,58,40,30.29,30.15,5,2,9,0.00
2013-1-21,56.7,43.6,29.6,38.7,27.9,18.6,81,56,37,30.24,30.03,8,2,12,0.00
2013-1-22,38.5,32.5,24.1,17.9,6.6,0.8,46,34,23,30.39,30.11,8,2,12,0.00
2013-1-23,40.2,29.3,17.4,18.7,11.8,3.8,61,48,37,30.47,30.16,6,2,10,0.00
2013-1-24,39.9,32.3,24.1,26.7,14.2,2.6,74,49,29,30.60,30.09,9,2,12,0.00
2013-1-25,26.1,23.3,18.7,22.7,13.1,2.5,87,66,43,30.62,30.22,7,2,9,0.00
2013-1-26,41.0,31.3,25.6,34.0,27.0,22.6,91,84,72,30.50,30.20,3,1,6,0.04
2013-1-27,42.8,34.1,24.8,32.3,26.1,19.2,86,73,62,30.69,30.50,8,2,10,0.01
2013-1-28,48.9,41.9,34.3,45.0,35.1,26.8,91,77,67,30.60,30.35,5,2,7,0.02
2013-1-29,70.8,56.7,40.6,58.5,50.6,38.2,94,81,64,30.37,30.19,8,3,10,0.00
2013-1-30,71.7,65.1,56.5,64.4,60.3,53.3,92,85,69,30.19,29.56,17,9,22,1.01
2013-1-31,55.4,42.9,33.6,52.2,29.2,20.3,89,59,42,30.12,29.62,10,6,15,0.01
2013-2-1,39.6,33.2,23.4,27.7,13.8,5.5,64,46,30,30.47,29.99,13,4,15,0.00
2013-2-2,42.6,32.6,19.0,33.1,16.7,7.0,82,53,36,30.48,30.14,10,2,10,0.03
2013-2-3,49.6,39.6,32.0,33.4,28.4,21.3,88,66,43,30.13,29.97,9,3,12,0.00
2013-2-4,50.4,37.7,24.1,29.3,23.7,16.4,75,58,41,30.25,30.12,8,2,8,0.00
2013-2-5,58.3,45.2,35.6,37.8,31.3,26.5,71,59,44,30.11,30.02,6,1,7,0.00
2013-2-6,59.2,44.9,33.3,35.4,27.6,21.8,83,54,28,30.37,30.10,6,1,7,0.00
2013-2-7,42.4,39.4,36.3,35.9,31.5,23.0,90,74,52,30.42,30.27,5,2,7,0.11
2013-2-8,56.3,46.2,36.0,47.8,36.8,27.0,94,71,46,30.19,29.97,10,3,12,0.11
2013-2-9,51.4,39.8,28.6,27.9,22.4,17.8,77,52,28,30.45,30.19,6,3,9,0.00
2013-2-10,54.0,41.7,28.4,38.5,24.3,15.6,83,51,34,30.57,30.30,10,3,12,0.11
2013-2-11,57.2,50.4,43.5,55.0,47.6,38.7,94,90,83,30.30,30.08,8,6,10,0.12
2013-2-12,57.9,50.2,41.4,49.7,35.8,28.7,94,60,35,30.23,30.04,7,1,10,0.00
2013-2-13,49.3,46.5,42.6,46.2,41.8,34.0,92,84,57,30.06,29.76,0,0,0,0.31
2013-2-14,52.0,45.2,33.8,44.5,35.7,28.1,88,70,50,30.17,29.96,0,0,0,0.00
2013-2-15,60.8,45.5,31.6,43.7,33.3,28.0,89,65,39,30.20,30.04,0,0,0,0.01
2013-2-16,42.4,35.3,28.6,33.4,28.4,15.2,90,77,51,30.08,29.94,0,0,0,0.09
2013-2-17,37.2,29.3,21.6,16.9,11.0,7.3,63,47,31,30.35,30.05,0,0,0,0.00
2013-2-18,53.8,37.3,18.1,27.8,19.0,7.6,69,49,34,30.47,30.30,0,0,0,0.00
2013-2-19,45.9,39.8,33.3,42.3,32.2,18.8,89,75,54,30.32,29.98,0,0,0,0.17
2013-2-20,52.7,40.2,25.9,26.3,18.7,12.5,65,44,24,30.24,30.10,5,0,7,0.00
2013-2-21,53.8,40.3,23.4,23.6,17.3,10.6,62,40,24,30.36,30.21,5,1,10,0.00
2013-2-22,42.6,35.5,32.7,33.7,31.3,22.7,93,85,45,30.43,30.22,8,1,8,0.58
2013-2-23,42.6,38.4,34.3,40.7,36.6,32.5,95,93,92,30.23,29.94,2,0,4,0.26
2013-2-24,59.4,48.2,38.5,45.0,36.2,23.4,95,67,34,30.15,29.92,6,2,10,0.00
2013-2-25,42.3,37.9,33.4,25.6,23.7,22.1,69,57,49,30.31,30.14,5,1,7,0.00
2013-2-26,41.8,37.0,31.8,40.5,33.7,23.9,95,88,63,30.22,29.70,5,2,10,1.29
2013-2-27,55.9,45.4,37.8,44.4,38.7,34.2,94,79,56,29.91,29.75,6,2,9,0.01
2013-2-28,48.8,40.4,31.1,36.9,28.9,24.7,85,65,45,29.97,29.81,7,2,14,0.00
2013-3-1,45.7,39.3,31.6,32.9,28.1,24.3,76,64,52,30.02,29.95,6,1,8,0.00
2013-3-2,47.3,39.1,31.8,31.0,25.1,19.3,72,57,48,30.03,29.92,5,1,8,0.00
2013-3-3,43.5,35.1,28.3,23.8,18.9,14.5,62,52,42,30.09,29.97,7,3,10,0.00
2013-3-4,49.3,36.5,23.4,21.7,16.6,12.1,63,46,29,30.21,30.08,6,2,10,0.00
2013-3-5,46.8,42.0,35.2,41.4,32.1,19.9,94,70,45,30.16,29.68,7,2,10,0.36
2013-3-6,46.2,39.6,34.2,39.8,28.8,24.4,94,67,46,30.19,29.68,14,5,18,0.13
2013-3-7,51.4,40.3,31.5,32.7,27.3,21.4,73,61,43,30.36,30.18,8,2,12,0.00
2013-3-8,52.7,40.8,27.0,28.5,23.9,19.8,76,53,33,30.41,30.29,8,2,12,0.00
2013-3-9,59.4,44.5,27.9,34.6,27.5,19.8,76,53,36,30.44,30.34,3,1,6,0.00
2013-3-10,68.5,51.7,36.2,41.0,33.1,25.9,68,51,34,30.41,30.29,8,2,10,0.00
2013-3-11,68.0,54.4,40.6,53.2,40.7,22.9,83,60,41,30.32,30.00,13,6,18,0.02
2013-3-12,66.2,57.5,46.3,56.1,48.0,30.9,92,73,38,30.09,29.86,14,5,17,1.03
2013-3-13,55.0,44.0,32.7,33.9,27.0,17.3,80,53,34,30.24,30.08,12,3,14,0.00
2013-3-14,60.8,40.4,27.3,24.4,18.3,14.4,60,42,22,30.35,30.23,9,3,12,0.00
2013-3-15,65.3,47.2,26.7,36.0,27.0,15.6,65,47,31,30.28,30.00,8,2,13,0.00
2013-3-16,77.4,63.6,49.6,50.9,44.8,35.2,67,52,37,30.00,29.80,10,3,12,0.00
2013-3-17,57.7,51.1,40.1,51.2,43.8,36.9,89,76,61,30.25,29.97,7,2,10,0.00
2013-3-18,40.7,38.6,37.0,38.2,36.6,35.1,94,92,90,30.27,29.94,9,2,10,0.39
2013-3-19,62.4,48.0,36.3,45.2,32.1,16.7,95,62,23,30.14,29.93,10,3,16,0.00
2013-3-20,55.8,46.9,39.2,25.5,18.0,11.2,42,32,26,30.22,29.90,7,2,12,0.00
2013-3-21,45.9,37.8,29.1,26.6,16.7,10.0,60,43,30,30.07,29.87,8,4,14,0.00
2013-3-22,50.6,37.0,20.7,22.9,16.1,8.8,62,44,28,30.16,30.07,7,2,9,0.00
2013-3-23,57.0,45.1,37.0,31.1,25.8,20.4,63,47,34,30.16,30.01,6,1,7,0.00
2013-3-24,41.8,38.3,34.9,37.0,33.7,28.0,92,84,63,30.03,29.65,7,1,8,0.67
2013-3-25,46.0,39.2,34.2,40.0,29.5,23.3,93,70,47,29.83,29.62,10,3,16,0.02
2013-3-26,46.0,39.4,31.8,30.5,26.3,24.1,74,60,47,30.14,29.83,8,3,12,0.00
2013-3-27,49.3,40.1,32.0,27.0,23.8,20.9,73,53,38,30.24,30.13,9,3,13,0.00
2013-3-28,54.0,38.1,31.3,28.3,21.6,19.4,62,52,34,30.28,30.18,7,2,14,0.00
2013-3-29,59.5,46.3,29.7,33.2,26.6,19.7,71,48,29,30.33,30.17,5,1,9,0.00
2013-3-30,68.4,54.6,39.2,42.5,35.1,29.2,70,49,33,30.23,30.08,5,1,9,0.00
2013-3-31,65.5,55.3,48.4,55.6,48.9,39.1,90,80,63,30.08,29.82,7,3,10,0.74
2013-4-1,70.2,59.1,50.7,50.7,45.3,34.9,91,64,38,29.95,29.84,8,3,12,0.03
2013-4-2,60.3,50.3,37.6,35.1,30.0,23.1,69,48,27,30.16,29.95,7,2,14,0.00
2013-4-3,59.8,49.4,39.1,29.0,23.5,17.9,47,37,25,30.28,30.13,5,1,12,0.00
2013-4-4,48.4,40.8,36.1,34.4,27.2,17.2,91,62,32,30.32,29.96,3,2,9,1.03
2013-4-5,62.2,46.4,35.4,48.0,38.3,33.2,93,76,42,30.04,29.91,6,2,8,0.01
2013-4-6,66.7,53.5,39.9,41.6,35.8,31.2,72,53,38,30.25,30.04,7,2,10,0.00
2013-4-7,70.5,56.8,41.7,48.4,40.7,32.3,75,56,41,30.26,30.11,8,2,11,0.00
2013-4-8,77.9,66.2,54.9,58.7,51.8,44.7,82,61,45,30.18,30.07,8,3,12,0.00
2013-4-9,85.9,72.4,57.9,61.6,55.8,50.2,79,58,40,30.21,30.09,5,2,9,0.00
2013-4-10,87.4,74.7,62.2,64.0,58.1,53.5,77,57,42,30.13,29.97,7,2,10,0.00
2013-4-11,80.1,71.0,61.5,64.4,59.6,54.9,83,68,54,30.01,29.79,10,4,15,0.00
2013-4-12,81.3,71.6,63.2,67.5,58.3,38.1,92,66,36,29.81,29.64,12,5,19,0.28
2013-4-13,74.6,62.6,47.5,47.4,41.0,36.2,66,46,31,30.03,29.82,6,1,9,0.00
2013-4-14,80.2,64.5,47.2,48.8,42.1,35.5,71,46,29,30.10,30.02,8,2,11,0.00
2013-4-15,66.9,61.8,56.8,57.7,54.4,50.0,88,77,63,30.21,30.03,2,1,8,0.15
2013-4-16,77.1,66.8,57.1,63.6,58.0,52.3,90,74,61,30.30,30.20,6,2,9,0.00
2013-4-17,80.4,70.2,60.4,63.2,59.2,54.2,85,69,52,30.24,30.13,5,1,10,0.01
2013-4-18,78.4,70.4,62.8,64.7,60.2,57.6,86,71,52,30.19,30.03,10,4,14,0.00
2013-4-19,75.8,67.7,59.6,67.7,62.9,56.1,92,85,75,30.03,29.76,12,5,16,0.81
2013-4-20,62.1,54.4,43.9,53.3,37.9,31.3,84,55,40,30.26,29.87,7,2,10,0.00
2013-4-21,61.5,51.8,43.2,42.2,36.5,31.4,67,56,46,30.46,30.26,5,2,12,0.00
2013-4-22,63.0,51.8,39.2,37.9,33.9,30.2,79,53,29,30.44,30.25,6,2,9,0.00
2013-4-23,68.7,57.0,47.3,53.5,46.2,38.4,81,68,56,30.28,30.12,5,2,7,0.02
2013-4-24,73.0,62.4,52.3,59.0,53.0,47.6,87,72,55,30.14,30.00,6,2,14,0.00
2013-4-25,70.2,60.4,49.6,55.6,42.4,36.4,76,53,32,30.28,30.03,6,2,10,0.00
2013-4-26,73.0,60.5,48.0,43.7,38.0,31.0,63,45,30,30.43,30.29,7,1,9,0.00
2013-4-27,66.9,60.5,54.9,51.6,46.9,41.1,73,61,55,30.36,30.27,5,1,7,0.00
2013-4-28,58.5,55.4,52.9,53.2,51.0,49.1,94,86,74,30.26,30.07,5,2,7,1.78
2013-4-29,67.3,60.6,55.0,63.3,57.6,53.3,95,90,82,30.06,29.98,6,1,9,0.35
2013-4-30,65.2,60.5,57.0,59.5,56.5,53.2,92,87,79,30.19,30.02,2,1,5,0.01
2013-5-1,62.6,58.3,55.8,57.1,54.5,52.3,90,87,82,30.31,30.18,3,1,10,0.01
2013-5-2,61.2,57.3,53.8,56.3,53.8,50.6,90,88,83,30.33,30.26,3,1,7,0.00
2013-5-3,68.1,58.4,49.9,55.0,50.2,42.8,90,75,57,30.26,30.15,5,2,9,0.00
2013-5-4,61.5,53.7,48.0,50.5,46.3,42.2,87,76,64,30.18,30.06,6,2,9,0.00
2013-5-5,55.4,52.3,49.1,53.4,48.4,44.3,93,87,82,30.08,29.94,6,2,9,0.23
2013-5-6,66.2,59.4,54.7,63.8,57.2,53.0,95,92,87,29.96,29.82,5,2,10,1.23
2013-5-7,68.5,59.2,54.3,59.0,54.2,51.5,94,84,63,29.95,29.86,6,1,9,0.01
2013-5-8,68.9,60.9,53.6,60.9,55.6,50.4,91,83,70,30.02,29.92,5,1,8,0.11
2013-5-9,78.4,66.0,52.3,62.2,56.5,49.5,92,73,51,30.08,30.00,5,1,9,0.00
2013-5-10,83.8,71.3,57.4,66.4,59.4,52.3,87,67,50,30.08,29.96,3,1,9,0.00
2013-5-11,81.1,72.4,65.5,64.5,61.4,59.1,81,69,55,29.97,29.82,5,1,9,0.09
2013-5-12,70.7,63.5,54.7,59.5,47.7,36.4,88,60,34,30.03,29.84,7,2,10,0.01
2013-5-13,66.1,56.4,43.9,40.2,36.6,32.7,72,49,32,30.17,30.04,6,1,9,0.00
2013-5-14,71.6,57.6,41.7,46.6,40.1,33.0,74,54,39,30.25,30.07,3,1,9,0.00
2013-5-15,88.2,71.2,57.4,66.4,54.8,43.2,73,57,46,30.07,29.93,3,1,9,0.00
2013-5-16,84.6,74.8,64.8,62.7,59.4,57.0,78,60,44,30.02,29.93,3,1,6,0.00
2013-5-17,88.5,75.2,62.2,67.0,61.6,54.9,83,64,45,30.10,30.01,6,1,8,0.00
2013-5-18,75.2,69.4,64.9,65.4,62.1,59.3,86,78,69,30.17,30.09,3,1,8,0.17
2013-5-19,73.6,68.2,64.0,69.6,64.7,60.7,93,89,82,30.15,30.07,6,3,8,0.39
2013-5-20,67.5,67.2,66.9,64.6,64.5,64.4,92,91,90,30.11,30.08,5,3,6,0.00
2013-6-5,73.0,70.0,65.8,67.4,64.2,61.6,90,82,78,30.24,30.12,6,1,8,0.22
2013-6-6,73.0,69.1,66.0,70.9,66.9,62.7,94,93,86,30.13,29.94,8,3,10,0.75
2013-6-7,73.2,69.1,67.3,71.1,66.9,65.5,94,93,91,29.96,29.75,5,1,7,1.27
2013-6-8,78.6,71.3,64.0,72.1,67.5,62.0,94,88,78,30.22,29.95,5,1,6,0.64
2013-6-9,85.8,76.0,67.1,75.5,69.9,64.4,93,82,64,30.28,30.18,9,2,12,0.01
2013-6-10,81.5,73.3,70.0,74.7,69.4,66.9,92,88,75,30.22,30.00,6,3,10,0.40
2013-6-11,83.4,74.9,67.8,70.1,66.8,64.7,92,77,59,30.10,30.03,6,1,9,0.02
2013-6-12,89.1,77.9,65.8,77.2,69.8,61.0,87,77,66,30.11,30.00,5,1,7,0.00
2013-6-13,92.9,79.0,68.4,75.8,70.2,60.2,89,76,42,30.01,29.77,10,1,20,0.21
2013-6-14,80.2,70.7,60.8,64.0,58.7,55.4,86,67,48,30.14,29.89,6,2,12,0.01
2013-6-15,84.6,72.8,60.3,66.3,60.8,54.9,86,67,48,30.24,30.14,3,1,7,0.00
2013-6-16,87.4,76.7,66.6,72.2,65.6,60.1,81,69,58,30.24,30.13,5,1,8,0.00
2013-6-17,86.9,77.0,70.9,73.8,68.9,64.7,83,76,62,30.15,30.05,5,1,8,0.01
2013-6-18,81.5,73.4,69.3,73.1,68.5,65.7,90,85,73,30.09,29.92,5,1,10,1.00
2013-6-19,81.1,72.9,64.9,71.4,66.7,61.9,92,81,68,30.23,30.02,5,0,8,0.01
2013-6-20,80.3,72.2,65.4,69.7,65.0,61.8,91,79,63,30.35,30.24,5,1,7,0.00
2013-6-21,83.4,72.0,61.9,67.1,60.8,56.0,82,69,52,30.38,30.30,3,1,7,0.00
2013-6-22,81.5,72.9,65.5,71.2,65.5,57.5,87,78,68,30.35,30.23,3,1,6,0.00
2013-6-23,87.1,76.8,68.4,75.2,69.2,63.9,89,78,63,30.33,30.24,6,2,10,0.00
2013-6-24,89.2,77.5,70.9,76.4,70.0,66.3,87,78,65,30.33,30.22,7,1,10,0.00
2013-6-25,90.5,78.1,70.2,77.0,69.4,64.8,85,75,60,30.25,30.12,7,1,12,0.00
2013-6-26,89.2,76.7,67.6,76.0,68.0,61.9,82,75,57,30.16,30.04,5,1,10,1.17
2013-6-27,85.9,77.0,67.5,73.7,68.2,61.8,83,75,65,30.10,29.87,5,1,7,0.00
2013-6-28,91.0,78.9,71.6,75.2,68.5,63.3,78,71,59,29.91,29.75,5,1,19,0.99
2013-6-29,85.5,76.5,69.6,72.0,66.1,61.6,76,70,62,29.86,29.76,6,2,11,0.04
2013-6-30,84.2,74.8,69.4,69.9,62.9,56.0,71,67,62,29.99,29.85,7,2,10,0.35
2013-7-1,79.6,73.6,68.9,62.2,56.8,52.1,61,56,52,30.07,29.97,7,2,10,0.21
2013-7-2,75.9,73.1,71.4,48.5,43.3,32.9,44,35,24,30.30,30.17,12,4,17,0.29
2013-7-3,79.2,75.0,71.6,34.0,23.5,2.4,24,15,6,30.36,30.27,7,3,9,0.24
2013-7-4,85.6,76.2,72.2,76.9,27.9,-33.0,94,38,1,30.39,30.31,7,3,15,0.23
2013-7-5,83.8,76.4,71.4,77.1,70.7,53.3,95,84,45,30.39,30.30,6,2,8,0.28
2013-7-6,86.0,77.0,70.2,76.4,72.0,67.9,94,85,68,30.38,30.25,6,2,13,0.37
2013-7-7,84.6,76.6,72.3,76.9,72.6,69.5,94,88,74,30.32,30.21,5,1,9,0.49
2013-7-8,84.9,76.8,71.8,76.4,72.3,69.5,95,86,69,30.32,30.24,5,1,7,0.16
2013-7-9,88.2,78.9,72.9,78.7,73.6,69.9,94,84,73,30.30,30.19,6,1,10,0.00
2013-7-10,87.8,78.6,71.8,76.7,72.3,68.9,92,82,66,30.24,30.08,7,1,7,0.28
2013-7-11,76.6,74.0,71.1,73.6,71.2,67.7,93,91,88,30.11,30.02,3,1,6,3.36
2013-7-12,76.4,72.2,69.4,69.9,67.7,64.7,90,86,78,30.16,30.02,3,1,6,0.01
2013-7-13,78.4,72.6,68.4,71.0,66.7,63.8,86,82,78,30.27,30.15,3,1,6,0.11
2013-7-14,84.6,76.5,71.4,74.1,66.8,61.9,78,72,68,30.42,30.27,8,3,10,0.07
2013-7-15,88.3,78.0,69.4,74.7,65.2,55.9,69,65,58,30.46,30.39,5,0,5,0.00
2013-7-16,94.1,80.2,69.4,77.1,66.1,54.2,68,62,55,30.43,30.34,5,0,5,0.00
2013-7-17,92.8,81.0,74.7,76.4,63.4,54.1,62,55,47,30.38,30.26,2,0,6,0.00
2013-7-18,92.5,81.1,73.4,72.9,56.8,45.7,54,44,33,30.30,30.18,6,0,7,0.00
2013-7-19,91.6,81.6,74.0,69.1,47.7,27.5,48,32,15,30.25,30.13,5,1,8,0.00
2013-7-20,88.9,79.3,72.8,57.3,15.1,-33.5,35,11,1,30.17,30.07,3,1,8,0.00
2013-7-21,92.1,77.8,72.0,79.1,37.4,-33.8,94,50,1,30.15,30.07,3,1,6,0.99
2013-7-22,89.3,78.1,71.4,69.8,23.6,-34.2,60,26,1,30.11,29.98,3,0,7,0.00
2013-7-23,100.0,82.5,72.3,76.2,34.8,-33.8,61,34,1,30.00,29.89,5,1,7,0.00
2013-7-24,101.9,83.7,69.8,75.4,42.8,-35.3,57,38,1,29.97,29.90,5,1,6,0.00
2013-7-25,86.0,74.2,67.4,69.0,7.0,-36.8,57,16,1,30.10,29.91,2,1,7,0.03
2013-7-26,84.6,77.0,65.0,69.0,66.6,63.5,97,71,56,30.15,30.06,3,1,8,0.03
2013-7-27,76.5,70.0,66.7,70.9,67.8,65.2,98,93,82,30.09,29.98,5,1,10,0.78
2013-7-28,86.2,75.4,68.1,71.8,69.3,67.5,98,83,58,30.04,29.97,2,0,10,0.10
2013-7-29,85.4,73.6,63.0,68.5,64.8,60.2,99,77,44,30.21,30.04,2,0,6,0.04
2013-7-30,85.2,72.9,64.3,69.8,63.8,57.6,96,75,52,30.27,30.19,3,0,7,0.00
2013-7-31,79.9,73.3,68.6,72.7,69.3,67.5,98,88,69,30.20,30.04,2,0,8,0.90
2013-8-1,86.5,76.2,68.9,73.9,71.0,68.1,98,85,63,30.04,29.91,2,0,7,0.00
2013-8-2,88.4,76.4,66.0,70.9,68.5,65.1,98,79,53,30.07,29.96,2,0,7,0.00
2013-8-3,88.8,78.1,68.4,76.9,71.3,66.9,97,81,56,30.06,29.95,2,0,10,0.00
2013-8-4,84.7,75.5,67.8,70.2,66.3,60.5,95,76,45,30.07,29.95,5,1,13,0.00
2013-8-5,82.0,72.0,61.5,68.1,65.6,60.0,96,81,59,30.13,30.03,3,1,10,0.00
2013-8-6,77.0,70.4,63.3,70.0,66.5,61.6,97,88,78,30.11,30.03,5,1,12,0.54
2013-8-7,83.8,74.6,68.3,72.5,69.1,66.3,96,84,59,30.14,30.07,6,1,12,0.00
2013-8-8,82.9,75.0,69.9,75.8,71.6,68.7,97,90,77,30.12,30.04,6,1,9,0.06
2013-8-9,89.2,77.1,70.7,76.4,73.1,69.0,98,88,64,30.09,30.03,5,1,25,0.44
2013-8-10,91.6,75.8,69.8,77.5,73.0,68.0,99,92,58,30.14,30.08,12,1,23,1.15
2013-8-11,90.4,78.1,69.5,77.0,73.0,69.2,99,86,58,30.16,30.06,2,0,6,0.01
2013-8-12,90.3,79.7,72.4,75.1,72.4,69.1,98,80,51,30.09,29.98,2,1,8,0.06
2013-8-13,87.3,75.2,70.9,76.3,71.8,68.0,98,90,66,29.99,29.84,5,1,20,0.08
2013-8-14,75.5,69.8,61.5,70.8,62.9,58.7,95,80,58,30.13,29.89,3,1,9,0.00
2013-8-15,73.9,64.4,55.6,60.8,57.3,53.9,97,79,54,30.22,30.13,5,0,9,0.00
2013-8-16,71.4,63.4,55.7,62.2,58.9,54.3,97,86,70,30.24,30.16,2,0,7,0.00
2013-8-17,65.3,62.6,59.7,64.7,61.2,57.7,98,95,89,30.25,30.19,2,1,9,1.55
2013-8-18,77.6,68.9,64.1,69.7,66.1,63.7,99,91,74,30.28,30.18,2,0,5,0.25
2013-8-19,74.4,68.9,64.5,70.2,67.2,63.9,98,94,85,30.24,30.15,2,0,6,0.26
2013-8-20,80.2,71.3,62.1,72.2,68.0,61.8,99,90,73,30.24,30.16,2,0,4,0.00
2013-8-21,83.1,74.5,67.7,75.3,71.9,67.2,99,92,70,30.25,30.13,3,0,5,0.11
2013-8-22,86.7,76.2,67.9,73.8,70.4,66.3,99,84,57,30.17,30.02,2,0,7,0.14
2013-8-23,84.9,73.9,65.2,72.9,68.6,62.5,97,85,62,30.10,29.97,5,1,12,0.08
2013-8-24,80.4,69.5,61.9,63.7,61.0,58.3,97,77,48,30.33,30.11,3,1,10,0.00
2013-8-25,79.3,67.6,57.2,65.6,60.6,56.1,99,80,51,30.42,30.32,3,0,8,0.00
2013-8-26,82.8,67.4,52.7,64.6,59.1,52.2,99,78,48,30.36,30.15,3,0,12,0.00
2013-8-27,87.1,74.4,63.7,74.8,67.5,59.4,96,80,58,30.16,30.00,5,1,8,0.00
2013-8-28,84.6,77.1,67.9,74.8,71.7,66.8,98,84,65,30.02,29.91,2,0,5,0.00
2013-8-29,86.8,78.5,72.6,74.3,71.8,69.2,94,81,62,30.02,29.88,5,1,12,0.00
2013-8-30,87.2,74.1,66.9,71.2,67.6,64.9,98,82,51,30.08,29.96,3,0,7,0.01
2013-8-31,87.0,74.3,65.8,75.6,69.5,64.6,98,86,66,29.98,29.89,6,1,13,0.38
2013-9-1,89.0,73.5,66.7,76.3,70.3,66.1,99,91,63,29.92,29.81,3,0,23,0.30
2013-9-2,87.3,75.9,67.8,74.2,70.4,67.4,99,85,57,29.92,29.83,2,0,8,0.01
2013-9-3,88.1,77.0,67.0,73.0,69.7,65.5,97,80,52,29.97,29.82,2,0,10,0.00
2013-9-4,85.4,72.1,62.2,68.6,64.2,60.1,97,78,50,30.12,29.98,3,0,9,0.00
2013-9-5,86.0,71.4,60.3,67.0,60.8,54.9,99,74,35,30.16,30.09,2,0,7,0.00
2013-9-6,80.6,70.4,61.5,61.9,59.1,55.3,94,69,48,30.24,30.14,3,1,9,0.00
2013-9-7,81.5,69.3,58.7,66.8,62.2,57.1,97,80,57,30.18,29.98,3,1,7,0.00
2013-9-8,86.3,73.3,63.8,71.8,66.2,62.8,97,80,51,30.02,29.95,3,0,7,0.00
2013-9-9,86.6,74.1,63.5,70.7,66.9,62.9,99,81,53,30.17,30.02,3,0,9,0.00
2013-9-10,88.7,76.5,65.8,73.5,68.8,64.9,98,79,53,30.26,30.16,2,0,8,0.00
2013-9-11,90.0,77.8,68.6,72.0,68.3,64.4,88,74,52,30.23,30.10,5,0,9,0.00
2013-9-12,88.8,76.8,68.8,72.8,68.9,65.3,91,78,56,30.09,29.85,3,0,10,0.00
2013-9-13,81.7,72.6,62.7,68.3,60.4,51.5,93,68,41,29.94,29.79,6,2,15,0.00
2013-9-14,75.3,63.6,55.4,58.1,52.5,48.7,92,69,49,30.17,29.94,3,1,10,0.00
2013-9-15,79.7,64.8,52.0,63.5,57.4,50.3,95,79,51,30.28,30.16,3,1,8,0.00
2013-9-16,82.5,72.5,61.7,67.7,63.7,58.6,97,76,49,30.22,30.08,3,1,10,0.00
2013-9-17,74.8,65.2,56.4,57.9,54.6,52.0,89,70,46,30.35,30.22,6,1,12,0.00
2013-9-18,72.9,60.6,50.7,56.7,52.6,49.2,96,77,52,30.36,30.22,2,0,8,0.00
2013-9-19,75.8,64.3,52.3,62.6,57.4,50.4,95,80,58,30.24,30.10,2,0,7,0.00
2013-9-20,81.7,70.6,64.3,68.8,64.9,61.3,97,83,64,30.10,29.95,3,1,9,0.12
2013-9-21,76.6,67.8,62.6,69.6,66.0,61.7,98,94,77,29.97,29.73,3,1,13,0.56
2013-9-22,75.7,65.1,56.3,62.0,57.3,54.0,98,78,48,29.92,29.74,5,1,12,0.07
2013-9-23,74.1,62.3,53.2,57.4,53.5,49.4,95,75,51,30.09,29.92,5,1,8,0.00
2013-9-24,76.3,63.5,55.8,60.0,56.6,53.7,97,80,52,30.12,29.97,3,0,15,0.00
2013-9-25,70.8,61.6,53.2,61.4,58.0,52.1,99,88,68,29.97,29.90,2,0,5,0.01
2013-9-26,73.5,62.7,54.2,59.2,55.5,50.0,99,80,46,30.07,29.91,3,0,12,0.00
2013-9-27,74.3,61.5,49.8,59.3,53.9,49.0,98,78,49,30.21,30.07,3,1,9,0.00
2013-9-28,68.4,58.8,49.9,55.6,52.6,49.1,98,81,57,30.30,30.20,5,1,10,0.00
2013-9-29,69.8,59.0,48.8,57.1,53.1,47.8,97,83,57,30.21,30.07,2,0,7,0.00
2013-9-30,67.2,60.4,48.0,60.0,55.8,47.2,99,86,77,30.14,30.08,1,0,3,0.00
2013-10-1,80.9,69.7,60.1,62.1,59.3,56.3,92,71,45,30.15,30.05,3,0,8,0.00
2013-10-2,83.5,67.7,54.7,62.3,58.9,53.9,99,77,45,30.16,30.07,5,0,9,0.02
2013-10-3,84.7,70.5,58.6,65.2,61.1,57.1,98,75,46,30.14,30.07,2,0,8,0.00
2013-10-4,85.6,74.6,59.6,66.0,63.1,58.7,98,70,47,30.15,30.07,2,0,7,0.00
2013-10-5,88.0,71.9,59.9,69.0,63.4,58.9,99,78,46,30.13,30.04,3,0,10,0.00
2013-10-6,83.1,72.1,60.1,66.8,63.7,58.6,98,76,55,30.06,29.92,6,2,14,0.00
2013-10-7,72.9,69.8,66.6,70.6,68.3,65.8,99,95,88,29.92,29.82,6,2,14,0.70
2013-10-8,65.8,59.2,55.2,49.5,47.5,44.4,78,65,52,30.24,30.11,7,2,16,0.00
2013-10-9,68.4,58.4,51.5,53.8,49.2,44.8,85,72,54,30.25,30.15,5,2,18,0.00
2013-10-10,66.7,59.5,53.3,61.1,55.1,48.4,96,86,76,30.15,29.99,3,1,13,0.05
2013-10-11,71.1,64.7,59.3,62.9,60.0,57.4,95,85,69,30.01,29.94,2,0,9,0.00
2013-10-12,71.6,63.5,52.8,62.7,59.8,52.3,99,88,70,30.12,29.98,0,0,0,0.00
2013-10-13,65.4,62.2,60.0,62.5,60.5,58.7,97,94,89,30.25,30.11,0,0,1,0.06
2013-10-14,63.9,60.3,58.3,60.2,58.4,56.5,98,93,86,30.28,30.20,0,0,1,0.07
2013-10-15,71.8,60.7,52.0,56.3,53.6,51.1,98,79,50,30.24,30.09,2,0,7,0.00
2013-10-16,74.9,64.7,55.2,61.2,58.1,53.0,98,80,59,30.11,29.97,3,0,5,0.00
2013-10-17,69.5,63.9,59.4,64.0,61.4,58.5,98,92,77,29.99,29.86,1,0,7,0.07
2013-10-18,70.5,60.1,51.2,63.6,53.2,46.2,98,80,51,30.07,29.91,5,1,8,0.00
2013-10-19,60.8,56.9,50.7,59.3,55.7,49.4,99,96,93,30.01,29.86,2,0,5,0.04
2013-10-20,63.9,50.8,42.3,54.4,42.2,37.3,99,76,38,30.15,29.95,3,1,10,0.01
2013-10-21,68.2,53.2,36.8,50.9,45.3,36.0,98,77,48,30.20,30.03,2,0,7,0.00
2013-10-22,66.9,59.1,55.0,57.9,54.0,50.9,97,84,59,30.04,29.83,5,0,7,0.00
2013-10-23,63.3,56.0,43.9,57.5,44.6,31.3,98,69,33,30.05,29.73,10,3,24,0.00
2013-10-24,56.1,44.5,31.4,38.4,32.9,29.4,94,66,44,30.23,30.05,5,1,17,0.00
2013-10-25,51.6,42.4,28.3,34.4,31.4,26.3,95,67,41,30.43,30.23,6,1,12,0.00
2013-10-26,58.0,41.9,24.1,35.8,30.0,22.9,97,67,37,30.42,30.13,3,0,12,0.00
2013-10-27,67.9,53.1,37.9,45.4,40.6,36.0,95,65,39,30.17,30.08,3,1,10,0.00
2013-10-28,68.0,54.2,43.9,52.3,48.2,42.6,97,82,56,30.30,30.15,3,0,7,0.00
2013-10-29,71.2,58.8,48.1,55.9,52.4,46.5,97,81,53,30.37,30.27,5,0,8,0.00
2013-10-30,76.7,62.6,51.7,59.0,54.9,50.0,94,77,51,30.31,30.17,3,1,10,0.00
2013-10-31,70.1,64.2,55.0,62.7,57.2,53.3,94,79,65,30.20,29.91,9,3,18,0.00
2013-11-1,68.5,64.6,58.8,64.7,61.8,57.4,96,91,81,29.90,29.68,8,2,24,0.52
2013-11-2,67.9,57.5,48.9,58.2,48.5,36.6,99,75,38,29.99,29.73,6,1,17,0.01
2013-11-3,59.8,49.0,38.1,38.8,35.9,33.6,90,62,38,30.40,30.00,6,1,16,0.00
2013-11-4,54.7,45.2,38.4,35.4,32.1,28.5,74,61,42,30.58,30.40,8,1,14,0.00
2013-11-5,55.2,45.8,35.2,48.5,38.5,29.3,92,76,63,30.61,30.48,3,1,12,0.00
2013-11-6,69.6,56.0,43.5,54.2,49.2,41.9,95,79,56,30.48,30.15,5,1,10,0.00
2013-11-7,63.7,54.7,45.1,56.7,46.9,31.9,98,77,47,30.16,29.98,8,2,15,0.00
2013-11-8,54.2,42.7,27.1,33.3,27.0,22.7,96,57,30,30.37,30.17,7,1,17,0.00
2013-11-9,57.4,43.9,28.0,32.9,28.4,24.2,91,58,33,30.42,30.24,5,0,12,0.00
2013-11-10,69.5,53.7,38.3,38.6,32.6,24.9,82,49,25,30.28,30.12,6,2,15,0.00
2013-11-11,59.0,46.9,31.1,29.7,27.8,25.1,78,49,29,30.39,30.18,6,1,10,0.00
2013-11-12,59.4,43.0,29.9,37.6,31.1,18.8,95,65,37,30.49,30.09,8,2,17,0.10
2013-11-13,44.4,30.9,18.2,20.2,18.4,15.6,90,62,33,30.60,30.49,7,1,14,0.00
2013-11-14,56.6,40.0,23.7,24.6,21.5,17.8,84,51,25,30.54,30.38,5,1,10,0.00
2013-11-15,59.7,48.0,35.1,47.8,33.7,20.0,92,59,37,30.40,30.25,7,1,10,0.01
2013-11-16,59.5,53.3,48.9,55.6,51.6,46.4,99,94,87,30.31,30.24,1,0,4,0.08
2013-11-17,66.2,59.1,53.6,63.4,57.4,53.2,99,94,78,30.25,29.89,7,2,15,0.14
2013-11-18,71.8,63.1,48.7,65.0,48.9,30.2,98,65,33,30.01,29.83,8,2,16,0.12
2013-11-19,53.4,45.8,37.6,30.2,27.0,25.1,65,48,35,30.34,30.01,6,2,15,0.00
2013-11-20,51.1,42.0,33.9,33.6,29.3,25.8,73,61,46,30.52,30.34,5,1,13,0.00
2013-11-21,57.2,47.6,40.7,44.5,39.3,33.7,80,73,60,30.55,30.43,3,1,9,0.00
2013-11-22,66.3,56.5,47.9,58.1,51.0,43.0,95,82,72,30.44,30.12,5,1,14,0.00
2013-11-23,59.0,53.0,39.5,57.6,40.0,16.3,99,66,27,30.24,30.07,7,2,20,0.00
2013-11-24,38.9,31.3,24.4,18.6,7.9,1.3,53,38,24,30.60,30.24,8,3,18,0.00
2013-11-25,39.5,30.5,16.6,14.6,8.5,5.3,74,41,24,30.64,30.44,7,1,10,0.00
2013-11-26,50.4,37.9,31.4,50.1,32.9,11.3,99,85,35,30.44,29.59,9,2,17,2.05
2013-11-27,44.0,37.0,26.8,43.6,30.4,13.6,99,78,54,30.17,29.53,9,4,24,0.50
2013-11-28,43.3,30.3,18.4,20.2,16.3,12.7,80,57,34,30.47,30.18,8,1,16,0.00
2013-11-29,49.2,36.1,24.4,25.6,22.7,19.4,85,60,38,30.61,30.47,5,1,12,0.00
2013-11-30,45.6,33.6,26.1,26.3,23.8,21.1,87,69,45,30.64,30.38,3,1,12,0.00
2013-12-1,57.4,38.9,24.5,36.0,29.3,22.2,93,72,38,30.37,30.02,2,0,7,0.00
2013-12-2,57.9,44.4,29.4,42.9,37.5,28.7,99,79,53,30.01,29.80,5,0,8,0.00
2013-12-3,55.8,47.1,35.0,49.4,43.0,33.8,98,86,75,29.96,29.85,5,2,8,0.00
2013-12-4,59.2,54.6,50.1,57.2,53.2,46.8,99,95,87,30.05,29.94,5,1,8,0.07
2013-12-5,64.4,61.3,56.8,63.4,60.5,56.5,99,98,93,30.07,29.97,7,3,14,0.08
2013-12-6,75.2,68.8,64.4,64.2,63.1,61.6,98,83,63,30.00,29.90,8,5,26,0.00
2013-12-7,68.9,49.2,41.5,63.9,45.8,35.9,97,88,78,30.41,29.93,6,2,15,0.34
2013-12-8,41.3,34.1,31.4,35.9,30.9,27.4,98,89,67,30.42,30.29,5,2,12,0.19
2013-12-9,43.4,37.8,32.1,43.1,37.4,31.6,99,98,98,30.28,30.05,3,1,8,0.45
2013-12-10,49.4,40.8,26.1,43.7,36.7,20.1,99,87,47,30.30,29.90,9,2,18,0.26
2013-12-11,48.1,34.0,20.0,26.7,22.7,17.7,94,66,40,30.44,30.29,3,0,9,0.00
2013-12-12,42.8,34.0,24.4,25.6,17.9,11.4,76,53,30,30.41,30.28,7,2,14,0.00
2013-12-13,49.8,36.5,21.4,28.1,20.1,12.4,75,53,30,30.37,30.25,5,1,12,0.00
2013-12-14,45.1,39.2,35.6,41.0,33.0,27.6,98,80,58,30.28,29.77,7,1,13,0.64
2013-12-15,49.1,40.4,33.2,40.7,33.9,26.7,99,80,54,30.07,29.72,8,2,17,0.00
2013-12-16,56.2,41.8,29.6,34.2,30.4,25.9,87,66,41,30.15,30.06,3,1,12,0.00
2013-12-17,59.8,48.2,37.4,37.1,33.6,28.6,78,59,38,30.10,29.85,10,2,21,0.00
2013-12-18,48.0,38.6,26.1,31.2,19.1,14.2,75,47,26,30.27,30.01,6,1,15,0.00
2013-12-19,61.7,47.2,31.8,27.8,22.9,17.8,58,40,24,30.30,30.19,5,2,12,0.00
2013-12-20,63.6,53.3,41.1,51.5,42.0,27.6,87,66,45,30.22,30.09,6,2,15,0.00
2013-12-21,71.0,60.7,49.8,63.4,56.1,48.7,97,85,69,30.11,29.97,10,3,23,0.00
2013-12-22,71.7,66.1,60.8,66.7,63.5,59.7,97,91,82,30.02,29.93,12,5,24,1.25
2013-12-23,63.2,56.7,42.8,62.3,54.7,36.4,98,93,76,30.13,29.94,8,3,16,1.54
2013-12-24,43.8,37.2,26.8,35.1,24.6,14.0,77,61,41,30.45,30.12,7,3,18,0.00
2013-12-25,38.0,26.7,19.2,14.2,11.4,8.4,72,54,31,30.55,30.40,5,1,9,0.00
2013-12-26,50.0,34.2,22.9,26.1,20.5,12.2,80,59,38,30.40,30.25,5,1,8,0.00
2013-12-27,51.2,36.8,23.9,22.9,20.0,18.1,80,53,28,30.47,30.36,2,0,7,0.00
2013-12-28,55.1,42.0,28.3,35.8,26.3,18.8,77,55,33,30.41,30.15,2,0,6,0.00
2013-12-29,54.5,45.7,40.1,48.5,42.1,35.2,98,88,68,30.12,29.71,6,2,13,0.99
2013-12-30,50.3,42.4,32.7,40.9,37.0,31.7,98,82,67,30.11,29.91,3,0,7,0.00
2013-12-31,48.5,39.8,29.9,35.3,27.1,20.1,97,64,33,30.35,30.10,7,1,17,0.00
2014-1-1,49.6,37.7,27.3,30.0,24.9,20.9,84,62,36,30.39,30.14,7,1,12,0.00
2014-1-2,45.3,39.9,34.3,42.3,35.8,29.2,97,86,68,30.14,29.60,7,1,13,0.38